Terminal Aerodrome Forecast
Issued by NWS

Current Version | Previous Version | Text Only | Print | Product List | Glossary Off
Versions: 1 2 3 4 5 6 7 8 9 10 11 12 13 14 15 16

809
FTUS41 KPBZ 251720
TAFMGW
TAF
KMGW 251720Z 2518/2618 29003KT P6SM OVC025
     FM252200 31008KT P6SM OVC008
     FM260200 32007KT P6SM BKN015
     FM261500 27004KT P6SM SCT050=

USA.gov is the U.S. government's official web portal to all federal, state and local government web resources and services.